Time;durP1;ratioP1;P1;durP2;ratioP2;P2;SDS_P1;SDS_P2;PMS_P1;PMS_P2;Temp;Humidity;BMP_temperature;BMP_pressure;BME280_temperature;BME280_humidity;BME280_pressure;Samples;Min_cycle;Max_cycle;Signal;HPM_P1;HPM_P2
2021/01/10 00:00:56;;;;;;;50.27;23.43;;;2.30;99.90;;;;;;4958162;28;20728;-87
2021/01/10 00:03:21;;;;;;;46.67;24.10;;;2.30;99.90;;;;;;4954471;28;20547;-88
2021/01/10 00:05:47;;;;;;;44.23;22.30;;;2.30;99.90;;;;;;4965158;28;20212;-87
2021/01/10 00:08:13;;;;;;;40.90;21.80;;;2.30;99.90;;;;;;4947200;28;20260;-86
2021/01/10 00:10:38;;;;;;;46.70;23.97;;;2.40;99.90;;;;;;4951975;28;20189;-85
2021/01/10 00:13:05;;;;;;;43.47;23.00;;;2.30;99.90;;;;;;4952532;28;20339;-86
2021/01/10 00:15:31;;;;;;;45.73;22.90;;;2.20;99.90;;;;;;4954618;28;20344;-85
2021/01/10 00:17:57;;;;;;;43.30;21.87;;;2.20;99.90;;;;;;4949255;28;20491;-86
2021/01/10 00:20:23;;;;;;;51.33;22.70;;;2.20;99.90;;;;;;4965814;28;20468;-88
2021/01/10 00:22:56;;;;;;;55.07;24.50;;;2.20;99.90;;;;;;4948490;28;20460;-88
2021/01/10 00:25:23;;;;;;;51.40;24.40;;;2.10;99.90;;;;;;4941108;28;20463;-89
2021/01/10 00:27:49;;;;;;;51.83;24.03;;;2.10;99.90;;;;;;4945098;28;20828;-89
2021/01/10 00:30:20;;;;;;;46.33;22.97;;;2.10;99.90;;;;;;4944951;28;20582;-88
2021/01/10 00:32:50;;;;;;;42.53;22.03;;;2.10;99.90;;;;;;4941412;28;20505;-88
2021/01/10 00:35:16;;;;;;;42.77;22.60;;;2.10;99.90;;;;;;4945891;28;20501;-87
2021/01/10 00:37:50;;;;;;;42.60;22.50;;;2.10;99.90;;;;;;4957569;28;20495;-86
2021/01/10 00:40:17;;;;;;;39.63;21.80;;;2.20;99.90;;;;;;4959136;28;20526;-87
2021/01/10 00:42:43;;;;;;;38.37;21.60;;;2.10;99.90;;;;;;4953070;28;20466;-86
2021/01/10 00:45:10;;;;;;;40.80;21.97;;;2.10;99.90;;;;;;4949428;28;20989;-86
2021/01/10 00:47:36;;;;;;;38.70;19.30;;;2.10;99.90;;;;;;4956532;28;20451;-87
2021/01/10 00:50:04;;;;;;;44.40;22.33;;;2.10;99.90;;;;;;4961682;28;20457;-87
2021/01/10 00:52:30;;;;;;;44.53;21.83;;;2.10;99.90;;;;;;4960017;28;21189;-86
2021/01/10 00:54:57;;;;;;;33.73;19.50;;;2.10;99.90;;;;;;4957485;28;20887;-86
2021/01/10 00:57:23;;;;;;;38.57;20.20;;;2.10;99.90;;;;;;4959130;28;20480;-86
2021/01/10 00:59:48;;;;;;;38.27;21.27;;;2.10;99.90;;;;;;4958474;28;20748;-87
2021/01/10 01:02:15;;;;;;;37.97;20.60;;;2.10;99.90;;;;;;4955884;28;20547;-87
2021/01/10 01:04:45;;;;;;;37.13;21.30;;;2.10;99.90;;;;;;4967323;28;20197;-86
2021/01/10 01:07:12;;;;;;;43.63;19.73;;;2.10;99.90;;;;;;4960712;28;20447;-86
2021/01/10 01:09:38;;;;;;;42.70;22.50;;;2.10;99.90;;;;;;4968418;28;20479;-85
2021/01/10 01:12:05;;;;;;;40.73;22.40;;;2.10;99.90;;;;;;4950501;28;20462;-88
2021/01/10 01:14:31;;;;;;;42.27;23.20;;;2.00;99.90;;;;;;4956773;28;20196;-86
2021/01/10 01:16:56;;;;;;;46.53;22.43;;;2.00;99.90;;;;;;4960924;28;20979;-85
2021/01/10 01:19:22;;;;;;;51.07;24.00;;;1.90;99.90;;;;;;4960926;28;20456;-85
2021/01/10 01:21:54;;;;;;;54.43;25.17;;;1.90;99.90;;;;;;4957565;28;20296;-85
2021/01/10 01:24:21;;;;;;;57.10;26.53;;;1.90;99.90;;;;;;4955778;28;20182;-86
2021/01/10 01:26:47;;;;;;;55.50;23.87;;;2.00;99.90;;;;;;4958914;28;20514;-88
2021/01/10 01:29:13;;;;;;;61.10;24.30;;;1.90;99.90;;;;;;4960359;28;20462;-87
2021/01/10 01:31:39;;;;;;;51.00;24.20;;;2.00;99.90;;;;;;4953233;28;20463;-87
2021/01/10 01:34:05;;;;;;;46.40;23.57;;;1.90;99.90;;;;;;4946421;28;20452;-86
2021/01/10 01:36:31;;;;;;;55.03;23.27;;;2.00;99.90;;;;;;4956265;28;20216;-85
2021/01/10 01:39:00;;;;;;;60.87;24.60;;;2.10;99.90;;;;;;4957715;28;20210;-86
2021/01/10 01:41:27;;;;;;;47.17;23.10;;;2.10;99.90;;;;;;4960651;28;20915;-88
2021/01/10 01:43:53;;;;;;;46.97;24.67;;;2.10;99.90;;;;;;4962676;28;20495;-87
2021/01/10 01:46:38;;;;;;;53.37;24.30;;;2.10;99.90;;;;;;4958800;28;20584;-88
2021/01/10 01:49:06;;;;;;;51.27;24.87;;;2.10;99.90;;;;;;4955960;28;20193;-88
2021/01/10 01:51:34;;;;;;;58.30;22.47;;;2.00;99.90;;;;;;4952387;28;20465;-88
2021/01/10 01:54:00;;;;;;;56.03;25.03;;;2.00;99.90;;;;;;4968573;28;20444;-87
2021/01/10 01:56:26;;;;;;;54.30;24.27;;;2.10;99.90;;;;;;4965136;28;20459;-88
2021/01/10 01:59:18;;;;;;;48.43;24.00;;;2.10;99.90;;;;;;4952291;28;21105;-87
2021/01/10 02:01:43;;;;;;;50.00;24.30;;;2.10;99.90;;;;;;4954594;28;20475;-88
2021/01/10 02:04:26;;;;;;;53.77;23.80;;;2.20;99.90;;;;;;4947950;28;20476;-88
2021/01/10 02:06:59;;;;;;;59.23;22.93;;;2.10;99.90;;;;;;4954910;28;20645;-89
2021/01/10 02:09:26;;;;;;;55.73;26.90;;;2.10;99.90;;;;;;4947996;28;21046;-86
2021/01/10 02:11:53;;;;;;;50.53;23.60;;;2.10;99.90;;;;;;4957374;28;20436;-87
2021/01/10 02:14:22;;;;;;;52.50;24.33;;;2.10;99.90;;;;;;4958609;28;20506;-87
2021/01/10 02:16:49;;;;;;;48.87;23.90;;;2.10;99.90;;;;;;4961110;28;20623;-87
2021/01/10 02:19:39;;;;;;;58.43;25.60;;;2.10;99.90;;;;;;4960646;28;20495;-87
2021/01/10 02:22:05;;;;;;;55.67;25.60;;;2.10;99.90;;;;;;4944681;28;20524;-86
2021/01/10 02:24:35;;;;;;;57.83;26.73;;;2.10;99.90;;;;;;4950981;28;20456;-87
2021/01/10 02:27:05;;;;;;;55.93;26.50;;;2.10;99.90;;;;;;4952371;28;20444;-88
2021/01/10 02:29:32;;;;;;;47.00;23.13;;;2.10;99.90;;;;;;4952386;28;21192;-87
2021/01/10 02:32:01;;;;;;;49.60;24.00;;;2.10;99.90;;;;;;4956797;28;20449;-87
2021/01/10 02:34:26;;;;;;;52.40;23.57;;;2.10;99.90;;;;;;4959763;28;20464;-87
2021/01/10 02:37:00;;;;;;;56.27;26.50;;;2.10;99.90;;;;;;4965382;28;21091;-87
2021/01/10 02:39:37;;;;;;;56.13;26.03;;;2.20;99.90;;;;;;4952104;28;20210;-86
2021/01/10 02:42:17;;;;;;;53.70;23.90;;;2.20;99.90;;;;;;4955438;28;20570;-88
2021/01/10 02:44:52;;;;;;;57.07;24.17;;;2.20;99.90;;;;;;4953709;28;20453;-88
2021/01/10 02:47:18;;;;;;;55.80;25.50;;;2.10;99.90;;;;;;4963335;28;21116;-88
2021/01/10 02:49:44;;;;;;;57.70;25.20;;;2.20;99.90;;;;;;4965902;28;20464;-89
2021/01/10 02:52:10;;;;;;;59.13;26.17;;;2.20;99.90;;;;;;4965752;28;20471;-88
2021/01/10 02:54:36;;;;;;;49.67;26.30;;;2.20;99.90;;;;;;4964996;28;20208;-87
2021/01/10 02:57:09;;;;;;;51.83;25.40;;;2.20;99.90;;;;;;4957507;28;20229;-87
2021/01/10 02:59:41;;;;;;;52.53;23.70;;;2.10;99.90;;;;;;4957134;28;20456;-88
2021/01/10 03:02:10;;;;;;;48.63;23.67;;;2.10;99.90;;;;;;4957204;28;21570;-88
2021/01/10 03:04:36;;;;;;;51.00;25.40;;;2.20;99.90;;;;;;4964562;28;20695;-89
2021/01/10 03:07:05;;;;;;;48.47;24.30;;;2.20;99.90;;;;;;4966446;28;20444;-88
2021/01/10 03:09:31;;;;;;;52.20;23.60;;;2.20;99.90;;;;;;4959350;28;20465;-89
2021/01/10 03:12:27;;;;;;;45.70;22.60;;;2.20;99.90;;;;;;4963743;28;20454;-87
2021/01/10 03:15:03;;;;;;;59.93;23.50;;;2.20;99.90;;;;;;4967547;28;20360;-88
2021/01/10 03:17:45;;;;;;;52.10;22.43;;;2.20;99.90;;;;;;4965396;28;20476;-87
2021/01/10 03:20:14;;;;;;;47.67;22.63;;;2.20;99.90;;;;;;4962587;28;20480;-86
2021/01/10 03:22:40;;;;;;;48.13;23.47;;;2.20;99.90;;;;;;4957026;28;20470;-88
2021/01/10 03:25:07;;;;;;;50.17;24.10;;;2.20;99.90;;;;;;4965521;28;20452;-87
2021/01/10 03:27:35;;;;;;;48.80;24.50;;;2.20;99.90;;;;;;4962157;28;20450;-88
2021/01/10 03:30:05;;;;;;;53.03;23.10;;;2.20;99.90;;;;;;4965512;28;20559;-88
2021/01/10 03:32:31;;;;;;;44.50;23.30;;;2.20;99.90;;;;;;4965954;28;20456;-87
2021/01/10 03:34:56;;;;;;;45.03;23.53;;;2.20;99.90;;;;;;4964542;28;21104;-88
2021/01/10 03:37:22;;;;;;;51.03;22.07;;;2.10;99.90;;;;;;4963575;28;20489;-88
2021/01/10 03:39:48;;;;;;;50.07;24.23;;;2.20;99.90;;;;;;4957754;28;20474;-87
2021/01/10 03:42:14;;;;;;;48.23;21.50;;;2.20;99.90;;;;;;4965458;28;20194;-88
2021/01/10 03:44:39;;;;;;;39.83;22.77;;;2.20;99.90;;;;;;4964996;28;20600;-87
2021/01/10 03:47:05;;;;;;;44.37;21.00;;;2.10;99.90;;;;;;4963805;28;20189;-88
2021/01/10 03:49:31;;;;;;;45.93;21.83;;;2.10;99.90;;;;;;4959137;28;20620;-89
2021/01/10 03:51:57;;;;;;;47.90;23.50;;;2.10;99.90;;;;;;4957222;28;20213;-88
2021/01/10 03:54:22;;;;;;;40.67;21.53;;;2.10;99.90;;;;;;4957401;28;20466;-90
2021/01/10 03:56:48;;;;;;;49.13;23.10;;;2.00;99.90;;;;;;4955361;28;20213;-89
2021/01/10 03:59:14;;;;;;;41.10;21.07;;;2.00;99.90;;;;;;4956699;28;20249;-88
2021/01/10 04:01:40;;;;;;;41.70;22.20;;;2.00;99.90;;;;;;4954830;28;20186;-88
2021/01/10 04:04:05;;;;;;;46.23;23.87;;;2.00;99.90;;;;;;4956751;28;20197;-88
2021/01/10 04:06:32;;;;;;;47.07;22.40;;;2.00;99.90;;;;;;4962723;28;20868;-89
2021/01/10 04:08:58;;;;;;;49.13;22.80;;;2.10;99.90;;;;;;4963362;28;20332;-89
2021/01/10 04:11:23;;;;;;;45.90;22.13;;;2.00;99.90;;;;;;4954261;28;20455;-89
2021/01/10 04:13:50;;;;;;;48.77;23.30;;;2.10;99.90;;;;;;4955204;28;21200;-89
2021/01/10 04:16:15;;;;;;;45.27;22.00;;;2.20;99.90;;;;;;4957418;28;20232;-89
2021/01/10 04:18:41;;;;;;;58.43;24.10;;;2.20;99.90;;;;;;4959149;28;20492;-88
2021/01/10 04:21:07;;;;;;;46.97;22.57;;;2.20;99.90;;;;;;4962880;28;20204;-89
2021/01/10 04:23:33;;;;;;;50.60;22.00;;;2.20;99.90;;;;;;4963367;28;20457;-88
2021/01/10 04:25:59;;;;;;;45.13;21.97;;;2.20;99.90;;;;;;4963424;28;20975;-88
2021/01/10 04:28:27;;;;;;;40.17;21.33;;;2.30;99.90;;;;;;4964313;28;20194;-88
2021/01/10 04:30:53;;;;;;;44.03;21.00;;;2.20;99.90;;;;;;4961261;28;20464;-89
2021/01/10 04:33:18;;;;;;;52.37;23.80;;;2.30;99.90;;;;;;4965312;28;20448;-90
2021/01/10 04:35:44;;;;;;;48.27;21.87;;;2.30;99.90;;;;;;4966881;28;20689;-90
2021/01/10 04:38:10;;;;;;;42.10;18.47;;;2.20;99.90;;;;;;4970770;28;20225;-90
2021/01/10 04:40:36;;;;;;;41.60;20.60;;;2.20;99.90;;;;;;4961090;28;20210;-90
2021/01/10 04:43:01;;;;;;;46.10;20.20;;;2.30;99.90;;;;;;4959763;28;20280;-90
2021/01/10 04:45:27;;;;;;;45.23;20.73;;;2.30;99.90;;;;;;4966413;28;20182;-90
2021/01/10 04:47:54;;;;;;;40.97;20.87;;;2.40;99.90;;;;;;4964430;28;20561;-91
2021/01/10 04:50:22;;;;;;;35.17;18.33;;;2.20;99.90;;;;;;4969734;28;20559;-91
2021/01/10 04:52:52;;;;;;;42.10;19.90;;;2.00;99.90;;;;;;4958431;28;20541;-90
2021/01/10 04:55:20;;;;;;;40.73;19.50;;;2.00;99.90;;;;;;4959330;28;20445;-90
2021/01/10 04:57:49;;;;;;;35.40;19.20;;;2.10;99.90;;;;;;4960610;28;21381;-91
2021/01/10 05:00:16;;;;;;;40.97;18.97;;;2.20;99.90;;;;;;4962479;28;20488;-91
2021/01/10 05:02:59;;;;;;;43.23;21.93;;;2.10;99.90;;;;;;4966246;28;20467;-91
2021/01/10 05:05:25;;;;;;;41.57;20.63;;;2.20;99.90;;;;;;4961385;28;20452;-89
2021/01/10 05:07:51;;;;;;;46.00;21.17;;;2.10;99.90;;;;;;4963545;28;21043;-91
2021/01/10 05:10:17;;;;;;;37.90;19.97;;;2.00;99.90;;;;;;4959871;28;20443;-89
2021/01/10 05:12:42;;;;;;;49.07;20.87;;;2.00;99.90;;;;;;4954679;28;20247;-90
2021/01/10 05:15:09;;;;;;;38.43;18.97;;;2.00;99.90;;;;;;4957982;28;20697;-89
2021/01/10 05:17:34;;;;;;;50.57;19.07;;;2.00;99.90;;;;;;4957758;28;20359;-89
2021/01/10 05:20:06;;;;;;;42.87;20.13;;;2.10;99.90;;;;;;4964974;28;20507;-90
2021/01/10 05:22:31;;;;;;;44.33;20.73;;;2.20;99.90;;;;;;4956284;28;20198;-89
2021/01/10 05:25:13;;;;;;;44.63;20.60;;;2.30;99.90;;;;;;4964446;28;20840;-90
2021/01/10 05:27:39;;;;;;;37.27;19.03;;;2.10;99.90;;;;;;4958711;28;24229;-91
2021/01/10 05:30:06;;;;;;;40.67;20.30;;;2.20;99.90;;;;;;4957925;28;21821;-90
2021/01/10 05:32:32;;;;;;;36.90;19.83;;;2.00;99.90;;;;;;4960495;28;20640;-90
2021/01/10 05:34:59;;;;;;;38.00;18.77;;;1.90;99.90;;;;;;4955506;28;20987;-91
2021/01/10 05:37:25;;;;;;;45.13;20.63;;;1.90;99.90;;;;;;4958308;28;20835;-89
2021/01/10 05:39:50;;;;;;;39.97;19.87;;;1.90;99.90;;;;;;4955815;28;20993;-90
2021/01/10 05:42:18;;;;;;;42.47;20.27;;;2.00;99.90;;;;;;4950308;28;20588;-90
2021/01/10 05:44:43;;;;;;;36.73;18.93;;;1.80;99.90;;;;;;4963163;28;20228;-88
2021/01/10 05:47:11;;;;;;;39.70;19.73;;;1.80;99.90;;;;;;4960411;28;20452;-88
2021/01/10 05:49:52;;;;;;;43.50;20.73;;;1.70;99.90;;;;;;4962033;28;20234;-88
2021/01/10 05:52:19;;;;;;;41.77;20.50;;;1.70;99.90;;;;;;4951597;28;20916;-89
2021/01/10 05:54:46;;;;;;;33.93;19.93;;;1.70;99.90;;;;;;4961718;28;20976;-89
2021/01/10 05:57:14;;;;;;;42.80;20.30;;;1.70;99.90;;;;;;4961324;28;20487;-89
2021/01/10 05:59:49;;;;;;;40.87;19.97;;;1.70;99.90;;;;;;4961234;28;20478;-89
2021/01/10 06:02:28;;;;;;;40.70;21.60;;;1.70;99.90;;;;;;4950546;28;20451;-90
2021/01/10 06:05:14;;;;;;;35.10;19.03;;;1.70;99.90;;;;;;4948922;28;21033;-88
2021/01/10 06:07:41;;;;;;;39.50;19.57;;;1.70;99.90;;;;;;4950043;28;20589;-88
2021/01/10 06:10:08;;;;;;;42.23;18.40;;;1.60;99.90;;;;;;4958492;28;20547;-89
2021/01/10 06:12:34;;;;;;;39.30;21.00;;;1.60;99.90;;;;;;4953724;28;20523;-89
2021/01/10 06:15:17;;;;;;;35.43;20.07;;;1.70;99.90;;;;;;4962197;28;20483;-89
2021/01/10 06:17:47;;;;;;;43.83;19.27;;;1.70;99.90;;;;;;4951908;28;21098;-88
2021/01/10 06:20:29;;;;;;;35.30;17.00;;;1.70;99.90;;;;;;4958879;28;21069;-88
2021/01/10 06:22:57;;;;;;;34.20;18.07;;;1.70;99.90;;;;;;4958299;28;20924;-89
2021/01/10 06:25:27;;;;;;;31.27;18.50;;;1.80;99.90;;;;;;4957341;28;20467;-89
2021/01/10 06:28:16;;;;;;;33.50;17.30;;;1.70;99.90;;;;;;4964612;28;20447;-89
2021/01/10 06:30:53;;;;;;;33.30;18.97;;;1.70;99.90;;;;;;4958891;28;20732;-86
2021/01/10 06:33:31;;;;;;;35.37;18.47;;;1.80;99.90;;;;;;4969149;28;20561;-89
2021/01/10 06:36:17;;;;;;;36.27;17.80;;;1.80;99.90;;;;;;4964472;28;20471;-92
2021/01/10 06:38:44;;;;;;;32.93;18.90;;;1.70;99.90;;;;;;4978176;28;20499;-89
2021/01/10 06:41:18;;;;;;;35.97;18.67;;;1.90;99.90;;;;;;4961202;28;20448;-84
2021/01/10 06:43:49;;;;;;;31.93;17.10;;;1.90;99.90;;;;;;4956249;28;20870;-85
2021/01/10 06:46:16;;;;;;;40.03;18.90;;;1.90;99.90;;;;;;4955721;28;20535;-85
2021/01/10 06:48:42;;;;;;;37.00;18.13;;;1.80;99.90;;;;;;4952087;28;20451;-85
2021/01/10 06:51:08;;;;;;;33.70;17.27;;;1.70;99.90;;;;;;4960599;28;21091;-85
2021/01/10 06:53:38;;;;;;;30.30;17.20;;;1.80;99.90;;;;;;4960624;28;20492;-92
2021/01/10 06:56:05;;;;;;;35.87;18.63;;;1.70;99.90;;;;;;4963107;28;20541;-90
2021/01/10 06:58:31;;;;;;;37.30;17.57;;;1.70;99.90;;;;;;4957488;28;20483;-87
2021/01/10 07:00:58;;;;;;;33.43;17.40;;;1.70;99.90;;;;;;4957602;28;20459;-78
2021/01/10 07:03:25;;;;;;;30.43;17.20;;;1.70;99.90;;;;;;4955899;28;20265;-85
2021/01/10 07:06:11;;;;;;;34.50;16.80;;;1.80;99.90;;;;;;4952751;28;20468;-84
2021/01/10 07:08:41;;;;;;;34.50;17.47;;;1.70;99.90;;;;;;4939506;28;612111;-87
2021/01/10 07:11:23;;;;;;;33.37;17.90;;;1.70;99.90;;;;;;4958961;28;20655;-86
2021/01/10 07:13:55;;;;;;;40.30;19.33;;;1.60;99.90;;;;;;4955392;28;20461;-84
2021/01/10 07:16:26;;;;;;;38.43;21.60;;;1.60;99.90;;;;;;4954886;28;20452;-83
2021/01/10 07:18:53;;;;;;;42.03;21.67;;;1.70;99.90;;;;;;4956359;28;20508;-85
2021/01/10 07:21:36;;;;;;;39.50;21.10;;;1.80;99.90;;;;;;4954793;28;20474;-87
2021/01/10 07:24:16;;;;;;;33.20;19.37;;;1.80;99.90;;;;;;4955469;28;20451;-87
2021/01/10 07:26:52;;;;;;;37.73;20.37;;;1.60;99.90;;;;;;4953174;28;20459;-86
2021/01/10 07:29:30;;;;;;;34.63;20.10;;;1.60;99.90;;;;;;4955457;28;20999;-87
2021/01/10 07:32:03;;;;;;;37.67;20.07;;;1.60;99.90;;;;;;4959795;28;21078;-85
2021/01/10 07:34:30;;;;;;;34.43;18.27;;;1.60;99.90;;;;;;4955070;28;20494;-86
2021/01/10 07:36:59;;;;;;;32.87;19.07;;;1.70;99.90;;;;;;4954363;28;20507;-85
2021/01/10 07:39:27;;;;;;;39.33;19.27;;;1.60;99.90;;;;;;4957206;28;20525;-84
2021/01/10 07:42:13;;;;;;;35.43;19.07;;;1.50;99.90;;;;;;4957263;28;20506;-84
2021/01/10 07:44:51;;;;;;;35.03;18.17;;;1.60;99.90;;;;;;4962905;28;20462;-92
2021/01/10 07:47:18;;;;;;;32.70;18.50;;;1.60;99.90;;;;;;4964554;28;20451;-91
2021/01/10 07:49:52;;;;;;;36.30;18.57;;;1.70;99.90;;;;;;4961268;28;20455;-84
2021/01/10 07:52:38;;;;;;;35.80;19.40;;;1.70;99.90;;;;;;4953999;28;20487;-85
2021/01/10 07:55:04;;;;;;;37.23;17.47;;;1.60;99.90;;;;;;4955698;28;20491;-84
2021/01/10 07:57:32;;;;;;;34.50;18.00;;;1.60;99.90;;;;;;4951793;28;20507;-88
2021/01/10 08:00:16;;;;;;;32.07;17.90;;;1.60;99.90;;;;;;4954260;28;20964;-87
2021/01/10 08:02:57;;;;;;;36.03;18.87;;;1.70;99.90;;;;;;4956891;28;21036;-87
2021/01/10 08:05:30;;;;;;;29.97;16.77;;;1.80;99.90;;;;;;4965701;28;20459;-86
2021/01/10 08:08:01;;;;;;;33.03;17.80;;;1.60;99.90;;;;;;4956238;28;20889;-86
2021/01/10 08:10:50;;;;;;;28.93;15.20;;;1.70;99.90;;;;;;4956716;28;21065;-86
2021/01/10 08:13:35;;;;;;;34.37;18.53;;;1.80;99.90;;;;;;4956037;28;20540;-77
2021/01/10 08:16:08;;;;;;;35.37;16.57;;;1.90;99.90;;;;;;4954643;28;20907;-78
2021/01/10 08:18:42;;;;;;;26.13;16.07;;;1.80;99.90;;;;;;4951622;28;20500;-83
2021/01/10 08:21:15;;;;;;;28.93;17.17;;;1.80;99.90;;;;;;4959631;28;20471;-82
2021/01/10 08:23:43;;;;;;;32.90;18.40;;;1.80;99.90;;;;;;4951977;28;20453;-82
2021/01/10 08:26:17;;;;;;;37.50;17.40;;;1.80;99.90;;;;;;4955516;28;20525;-81
2021/01/10 08:28:48;;;;;;;33.23;16.47;;;1.80;99.90;;;;;;4952181;28;20574;-82
2021/01/10 08:31:16;;;;;;;31.03;17.97;;;1.70;99.90;;;;;;4957497;28;20984;-87
2021/01/10 08:33:43;;;;;;;30.70;16.03;;;1.70;99.90;;;;;;4954832;28;20447;-87
2021/01/10 08:36:08;;;;;;;36.93;16.73;;;1.70;99.90;;;;;;4963209;28;20484;-87
2021/01/10 08:38:35;;;;;;;30.40;17.40;;;1.80;99.90;;;;;;4951945;28;21011;-87
2021/01/10 08:41:01;;;;;;;31.63;17.43;;;2.10;99.90;;;;;;4959252;28;20452;-87
2021/01/10 08:43:27;;;;;;;33.40;17.10;;;2.30;99.90;;;;;;4957352;28;21007;-85
2021/01/10 08:45:52;;;;;;;33.23;17.80;;;2.10;99.90;;;;;;4961186;28;20193;-84
2021/01/10 08:48:18;;;;;;;32.80;16.90;;;2.10;99.90;;;;;;4960114;28;20300;-84
2021/01/10 08:50:44;;;;;;;30.80;17.30;;;2.20;99.90;;;;;;4963343;28;20320;-84
2021/01/10 08:53:09;;;;;;;27.03;15.07;;;2.10;99.90;;;;;;4960966;28;20719;-84
2021/01/10 08:55:40;;;;;;;29.17;16.20;;;2.00;99.90;;;;;;4959398;28;21589;-84
2021/01/10 08:58:10;;;;;;;31.97;16.17;;;2.10;99.90;;;;;;4961279;28;20217;-85
2021/01/10 09:00:40;;;;;;;31.00;16.70;;;2.30;99.90;;;;;;4954803;28;20498;-78
2021/01/10 09:03:18;;;;;;;34.13;16.77;;;2.10;99.90;;;;;;4955049;28;20449;-80
2021/01/10 09:05:45;;;;;;;34.10;17.00;;;2.10;99.90;;;;;;4950383;28;20455;-82
2021/01/10 09:08:37;;;;;;;29.80;17.40;;;2.20;99.90;;;;;;4947684;28;20527;-80
2021/01/10 09:11:31;;;;;;;31.60;15.43;;;2.20;99.90;;;;;;4948585;28;20472;-82
2021/01/10 09:14:00;;;;;;;26.07;15.60;;;2.10;99.90;;;;;;4947178;28;20514;-83
2021/01/10 09:16:29;;;;;;;31.50;15.50;;;2.10;99.90;;;;;;4952143;28;20448;-82
2021/01/10 09:18:57;;;;;;;32.27;15.27;;;2.10;99.90;;;;;;4957948;28;20495;-82
2021/01/10 09:21:27;;;;;;;28.40;16.00;;;2.10;99.90;;;;;;4955222;28;20534;-83
2021/01/10 09:23:57;;;;;;;31.70;15.90;;;2.10;99.90;;;;;;4950902;28;20499;-83
2021/01/10 09:26:34;;;;;;;23.60;15.33;;;2.20;99.90;;;;;;4949734;28;21068;-83
2021/01/10 09:29:02;;;;;;;28.63;17.57;;;2.20;99.90;;;;;;4950998;28;20452;-83
2021/01/10 09:31:42;;;;;;;28.60;14.63;;;2.30;99.90;;;;;;4950542;28;20473;-82
2021/01/10 09:34:08;;;;;;;32.90;15.50;;;2.40;99.90;;;;;;4959636;28;20543;-82
2021/01/10 09:36:34;;;;;;;28.40;15.13;;;2.50;99.90;;;;;;4955517;28;20495;-82
2021/01/10 09:39:00;;;;;;;30.90;15.50;;;2.50;99.90;;;;;;4950945;28;20496;-83
2021/01/10 09:41:26;;;;;;;24.97;14.80;;;2.40;99.90;;;;;;4950626;28;20200;-83
2021/01/10 09:43:54;;;;;;;25.23;14.67;;;2.50;99.90;;;;;;4948575;28;21598;-83
2021/01/10 09:46:33;;;;;;;28.80;14.50;;;2.50;99.90;;;;;;4952708;28;20521;-82
2021/01/10 09:49:07;;;;;;;28.60;15.33;;;2.60;99.90;;;;;;4959477;28;20464;-78
2021/01/10 09:51:57;;;;;;;30.00;13.60;;;2.60;99.90;;;;;;4957497;28;20464;-79
2021/01/10 09:54:28;;;;;;;24.27;14.07;;;2.50;99.90;;;;;;4953604;28;20484;-81
2021/01/10 09:56:55;;;;;;;32.80;14.50;;;2.60;99.90;;;;;;4960860;28;20476;-81
2021/01/10 09:59:44;;;;;;;29.20;15.17;;;2.60;99.90;;;;;;4957828;28;24329;-82
2021/01/10 10:02:18;;;;;;;35.47;17.17;;;2.60;99.90;;;;;;4949876;28;20448;-81
2021/01/10 10:04:46;;;;;;;29.20;17.03;;;2.60;99.90;;;;;;4946769;28;20744;-81
2021/01/10 10:07:13;;;;;;;33.57;17.67;;;2.50;99.90;;;;;;4953094;28;20473;-82
2021/01/10 10:09:47;;;;;;;31.87;16.20;;;2.60;99.90;;;;;;4940801;28;20544;-81
2021/01/10 10:12:13;;;;;;;31.43;16.67;;;2.60;99.90;;;;;;4961862;28;20519;-86
2021/01/10 10:14:49;;;;;;;36.27;18.00;;;2.60;99.90;;;;;;4964660;28;22002;-88
2021/01/10 10:17:15;;;;;;;34.33;17.80;;;2.70;99.90;;;;;;4966566;28;20529;-90
2021/01/10 10:19:41;;;;;;;35.47;18.50;;;2.60;99.90;;;;;;4965847;28;20460;-90
2021/01/10 10:22:23;;;;;;;37.50;18.97;;;2.60;99.90;;;;;;4978136;28;20197;-88
2021/01/10 10:24:48;;;;;;;33.30;19.60;;;2.60;99.90;;;;;;4972675;28;20719;-88
2021/01/10 10:27:14;;;;;;;39.60;20.80;;;2.60;99.90;;;;;;4966359;28;20452;-89
2021/01/10 10:29:40;;;;;;;39.07;18.90;;;2.60;99.90;;;;;;4962050;28;20683;-89
2021/01/10 10:32:06;;;;;;;40.57;19.53;;;2.60;99.90;;;;;;4954365;28;20411;-88
2021/01/10 10:34:32;;;;;;;35.13;18.67;;;2.70;99.90;;;;;;4957005;28;20186;-88
2021/01/10 10:36:59;;;;;;;42.00;21.70;;;2.70;99.90;;;;;;4959148;28;21229;-90
2021/01/10 10:39:25;;;;;;;37.77;19.80;;;2.70;99.90;;;;;;4965883;28;20197;-88
2021/01/10 10:41:51;;;;;;;42.33;19.83;;;2.80;99.90;;;;;;4965049;28;20574;-89
2021/01/10 10:44:17;;;;;;;39.73;20.80;;;2.80;99.90;;;;;;4964606;28;20496;-89
2021/01/10 10:46:42;;;;;;;37.23;20.23;;;2.80;99.90;;;;;;4963646;28;20989;-88
2021/01/10 10:49:08;;;;;;;42.13;19.30;;;2.70;99.90;;;;;;4961252;28;20210;-88
2021/01/10 10:51:34;;;;;;;40.07;19.97;;;2.70;99.90;;;;;;4956100;28;20198;-89
2021/01/10 10:53:59;;;;;;;37.80;19.90;;;2.80;99.90;;;;;;4968227;28;20604;-87
2021/01/10 10:56:36;;;;;;;36.60;19.47;;;2.80;99.90;;;;;;4948574;28;20201;-85
2021/01/10 10:59:02;;;;;;;27.10;17.00;;;2.80;99.90;;;;;;4955927;28;20635;-90
2021/01/10 11:01:46;;;;;;;33.17;18.63;;;2.80;99.90;;;;;;4965144;28;20449;-92
2021/01/10 11:04:12;;;;;;;30.00;18.40;;;2.70;99.90;;;;;;4960955;28;21059;-91
2021/01/10 11:06:38;;;;;;;37.90;19.53;;;2.70;99.90;;;;;;4959700;28;20440;-87
2021/01/10 11:09:09;;;;;;;36.00;18.50;;;2.70;99.90;;;;;;4962154;28;20223;-87
2021/01/10 11:11:43;;;;;;;34.53;18.10;;;2.70;99.90;;;;;;4948710;28;20479;-86
2021/01/10 11:14:10;;;;;;;35.83;18.70;;;2.70;99.90;;;;;;4940690;28;21077;-88
2021/01/10 11:16:38;;;;;;;33.57;18.23;;;2.80;99.90;;;;;;4947893;28;20500;-87
2021/01/10 11:19:05;;;;;;;36.50;18.17;;;2.80;99.90;;;;;;4942221;28;20515;-87
2021/01/10 11:21:33;;;;;;;37.43;16.97;;;2.80;99.90;;;;;;4946112;28;20559;-85
2021/01/10 11:23:59;;;;;;;31.70;18.27;;;2.90;99.90;;;;;;4953971;28;21440;-87
2021/01/10 11:26:25;;;;;;;33.70;18.50;;;2.90;99.90;;;;;;4955405;28;20499;-88
2021/01/10 11:28:51;;;;;;;34.50;17.57;;;2.90;99.90;;;;;;4956820;28;20527;-87
2021/01/10 11:31:18;;;;;;;34.50;18.20;;;2.90;99.90;;;;;;4954838;28;20563;-90
2021/01/10 11:33:44;;;;;;;31.17;18.00;;;2.90;99.90;;;;;;4957480;28;20229;-88
2021/01/10 11:36:10;;;;;;;32.80;18.90;;;2.90;99.90;;;;;;4960579;28;20874;-86
2021/01/10 11:38:35;;;;;;;33.17;18.37;;;2.90;99.90;;;;;;4963307;28;20519;-90
2021/01/10 11:41:08;;;;;;;26.57;16.07;;;2.90;99.90;;;;;;4965605;28;20441;-89
2021/01/10 11:43:34;;;;;;;36.03;19.50;;;2.90;99.90;;;;;;4965341;28;20400;-88
2021/01/10 11:46:00;;;;;;;34.47;18.13;;;2.80;99.90;;;;;;4955887;28;22034;-90
2021/01/10 11:48:26;;;;;;;32.57;16.60;;;2.80;99.90;;;;;;4958097;28;20877;-88
2021/01/10 11:50:52;;;;;;;34.70;18.53;;;2.80;99.90;;;;;;4959131;28;20190;-89
2021/01/10 11:53:17;;;;;;;33.77;17.73;;;3.00;99.90;;;;;;4973969;28;20215;-89
2021/01/10 11:55:44;;;;;;;36.80;19.30;;;3.00;99.90;;;;;;4956447;28;20702;-89
2021/01/10 11:58:11;;;;;;;29.87;18.17;;;3.00;99.90;;;;;;4953531;28;20669;-88
2021/01/10 12:00:37;;;;;;;34.13;17.53;;;3.10;99.90;;;;;;4957092;28;20617;-89
2021/01/10 12:03:03;;;;;;;33.63;18.93;;;3.20;99.90;;;;;;4957445;28;20877;-90
2021/01/10 12:05:28;;;;;;;29.43;14.87;;;3.20;99.90;;;;;;4957365;28;20472;-89
2021/01/10 12:07:54;;;;;;;33.30;16.70;;;3.20;99.90;;;;;;4962708;28;20936;-87
2021/01/10 12:10:20;;;;;;;27.30;16.80;;;3.20;99.90;;;;;;4963081;28;20240;-88
2021/01/10 12:12:46;;;;;;;31.17;18.07;;;3.20;99.90;;;;;;4958234;28;20205;-88
2021/01/10 12:15:11;;;;;;;35.40;18.10;;;3.20;99.90;;;;;;4958351;28;20255;-87
2021/01/10 12:17:37;;;;;;;36.47;19.37;;;3.20;99.90;;;;;;4951848;28;20236;-89
2021/01/10 12:20:04;;;;;;;38.17;18.83;;;3.10;99.90;;;;;;4954202;28;20205;-88
2021/01/10 12:22:30;;;;;;;37.37;18.83;;;3.00;99.90;;;;;;4964853;28;20205;-89
2021/01/10 12:24:56;;;;;;;37.73;19.60;;;3.00;99.90;;;;;;4951725;28;20448;-88
2021/01/10 12:27:21;;;;;;;38.63;19.67;;;3.00;99.90;;;;;;4956896;28;20933;-88
2021/01/10 12:29:47;;;;;;;33.10;21.10;;;3.00;99.90;;;;;;4964377;28;20196;-89
2021/01/10 12:32:13;;;;;;;35.57;20.63;;;3.10;99.90;;;;;;4963974;28;20186;-89
2021/01/10 12:34:38;;;;;;;41.23;22.83;;;3.00;99.90;;;;;;4964653;28;20289;-86
2021/01/10 12:37:04;;;;;;;46.23;23.90;;;3.00;99.90;;;;;;4965158;28;20206;-92
2021/01/10 12:39:30;;;;;;;40.17;22.17;;;3.00;99.90;;;;;;4971672;28;20202;-86
2021/01/10 12:41:55;;;;;;;46.77;21.30;;;3.10;99.90;;;;;;4966924;28;22164;-89
2021/01/10 12:44:21;;;;;;;37.33;22.13;;;3.10;99.90;;;;;;4973366;28;21142;-88
2021/01/10 12:46:47;;;;;;;44.90;23.40;;;3.10;99.90;;;;;;4976228;28;20194;-90